createdAt,value
2022-08-26T00:02:12.762Z,99975.78
2022-08-26T00:04:39.394Z,99982.12
2022-08-26T00:07:06.229Z,99978.69
2022-08-26T00:09:33.066Z,99971.53
2022-08-26T00:12:04.046Z,99974.75
2022-08-26T00:14:31.650Z,99977.00
2022-08-26T00:16:58.498Z,99971.28
2022-08-26T00:19:25.248Z,99972.81
2022-08-26T00:21:51.726Z,99971.16
2022-08-26T00:24:19.268Z,99976.00
2022-08-26T00:26:45.823Z,99974.06
2022-08-26T00:29:13.053Z,99969.75
2022-08-26T00:31:40.078Z,99967.38
2022-08-26T00:34:07.284Z,99976.66
2022-08-26T00:36:36.169Z,99968.56
2022-08-26T00:39:03.134Z,99969.97
2022-08-26T00:41:29.645Z,99964.97
2022-08-26T00:43:56.286Z,99968.47
2022-08-26T00:46:26.927Z,99969.25
2022-08-26T00:48:58.746Z,99963.97
2022-08-26T00:51:29.695Z,99973.50
2022-08-26T00:54:06.551Z,99967.47
2022-08-26T00:56:36.319Z,99971.75
2022-08-26T00:59:05.196Z,99968.97
2022-08-26T01:01:32.268Z,99980.50
2022-08-26T01:04:00.030Z,99971.75
2022-08-26T01:06:27.315Z,99969.84
2022-08-26T01:08:54.305Z,99968.59
2022-08-26T01:11:20.925Z,99962.75
2022-08-26T01:13:48.698Z,99971.69
2022-08-26T01:16:16.102Z,99968.19
2022-08-26T01:18:43.425Z,99963.75
2022-08-26T01:21:36.428Z,99970.09
2022-08-26T01:24:07.954Z,99968.16
2022-08-26T01:26:40.493Z,99965.72
2022-08-26T01:29:08.075Z,99965.44
2022-08-26T01:31:39.007Z,99971.94
2022-08-26T01:34:05.514Z,99962.91
2022-08-26T01:36:32.038Z,99966.56
2022-08-26T01:38:58.527Z,99956.53
2022-08-26T01:41:27.210Z,99961.47
2022-08-26T01:43:55.809Z,99950.81
2022-08-26T01:46:23.396Z,99964.69
2022-08-26T01:48:52.396Z,99961.47
2022-08-26T01:51:22.738Z,99953.31
2022-08-26T01:53:49.558Z,99959.03
2022-08-26T01:56:16.369Z,99965.91
2022-08-26T01:58:47.966Z,99966.28
2022-08-26T02:01:15.549Z,99961.75
2022-08-26T02:03:56.371Z,99967.47
2022-08-26T02:06:23.732Z,99966.62
2022-08-26T02:08:52.938Z,99959.94
2022-08-26T02:11:19.513Z,99954.00
2022-08-26T02:13:48.976Z,99953.22
2022-08-26T02:16:16.334Z,99968.81
2022-08-26T02:18:43.899Z,99965.88
2022-08-26T02:21:13.774Z,99958.78
2022-08-26T02:23:40.314Z,99964.44
2022-08-26T02:26:12.463Z,99959.72
2022-08-26T02:28:54.400Z,99967.84
2022-08-26T02:31:20.979Z,99964.50
2022-08-26T02:33:48.959Z,99956.56
2022-08-26T02:36:22.884Z,99954.16
2022-08-26T02:38:49.656Z,99961.53
2022-08-26T02:41:18.522Z,99959.44
2022-08-26T02:43:45.421Z,99968.00
2022-08-26T02:46:12.034Z,99971.34
2022-08-26T02:48:47.841Z,99962.59
2022-08-26T02:51:14.381Z,99963.16
2022-08-26T02:53:40.902Z,99965.63
2022-08-26T02:56:09.534Z,99970.91
2022-08-26T02:58:35.989Z,99960.69
2022-08-26T03:01:04.756Z,99972.00
2022-08-26T03:03:32.030Z,99970.47
2022-08-26T03:05:59.144Z,99966.91
2022-08-26T03:08:25.656Z,99958.19
2022-08-26T03:10:52.197Z,99967.94
2022-08-26T03:13:19.284Z,99960.81
2022-08-26T03:15:45.984Z,99956.44
2022-08-26T03:18:14.308Z,99959.81
2022-08-26T03:20:40.757Z,99957.19
2022-08-26T03:23:07.848Z,99956.72
2022-08-26T03:25:35.640Z,99949.34
2022-08-26T03:28:03.252Z,99947.00
2022-08-26T03:30:45.405Z,99953.00
2022-08-26T03:33:13.061Z,99950.59
2022-08-26T03:35:40.727Z,99955.03
2022-08-26T03:38:08.414Z,99950.78
2022-08-26T03:40:38.760Z,99948.44
2022-08-26T03:43:07.300Z,99948.63
2022-08-26T03:45:37.373Z,99950.97
2022-08-26T03:48:04.178Z,99940.56
2022-08-26T03:50:31.120Z,99945.25
2022-08-26T03:53:01.004Z,99946.09
2022-08-26T03:55:31.080Z,99942.16
2022-08-26T03:57:57.786Z,99936.94
2022-08-26T04:00:24.394Z,99944.00
2022-08-26T04:02:53.250Z,99941.34
2022-08-26T04:05:20.648Z,99944.59
2022-08-26T04:07:48.526Z,99948.22
2022-08-26T04:10:20.192Z,99943.25
2022-08-26T04:12:47.197Z,99950.34
2022-08-26T04:15:15.582Z,99946.63
2022-08-26T04:17:42.511Z,99938.88
2022-08-26T04:20:09.659Z,99944.72
2022-08-26T04:22:36.126Z,99946.78
2022-08-26T04:25:02.696Z,99945.97
2022-08-26T04:27:33.731Z,99949.03
2022-08-26T04:30:00.569Z,99934.16
2022-08-26T04:32:27.178Z,99942.00
2022-08-26T04:34:53.654Z,99944.34
2022-08-26T04:37:20.185Z,99941.50
2022-08-26T04:39:50.943Z,99945.84
2022-08-26T04:42:21.081Z,99943.53
2022-08-26T04:44:52.662Z,99944.47
2022-08-26T04:47:19.117Z,99951.62
2022-08-26T04:49:45.576Z,99946.22
2022-08-26T04:52:12.081Z,99953.00
2022-08-26T04:54:39.053Z,99952.38
2022-08-26T04:57:08.522Z,99954.75
2022-08-26T04:59:38.960Z,99951.09
2022-08-26T05:02:06.968Z,99946.53
2022-08-26T05:04:34.024Z,99948.75
2022-08-26T05:07:02.650Z,99943.91
2022-08-26T05:09:29.741Z,99944.25
2022-08-26T05:11:57.190Z,99943.47
2022-08-26T05:14:23.691Z,99943.38
2022-08-26T05:16:51.060Z,99952.56
2022-08-26T05:19:18.972Z,99952.16
2022-08-26T05:21:45.946Z,99945.34
2022-08-26T05:24:13.635Z,99953.06
2022-08-26T05:26:40.100Z,99952.53
2022-08-26T05:29:06.646Z,99958.94
2022-08-26T05:31:34.317Z,99959.72
2022-08-26T05:34:03.497Z,99960.75
2022-08-26T05:36:30.967Z,99956.31
2022-08-26T05:38:57.878Z,99957.59
2022-08-26T05:41:34.273Z,99958.50
2022-08-26T05:44:03.691Z,99962.63
2022-08-26T05:46:30.306Z,99964.38
2022-08-26T05:48:57.166Z,99968.38
2022-08-26T05:51:26.079Z,99973.16
2022-08-26T05:53:54.878Z,99972.69
2022-08-26T05:56:24.731Z,99975.69
2022-08-26T05:58:51.173Z,99970.50
2022-08-26T06:01:19.617Z,99981.75
2022-08-26T06:03:51.726Z,99970.97
2022-08-26T06:06:28.782Z,99979.69
2022-08-26T06:08:57.991Z,99981.06
2022-08-26T06:11:25.543Z,99984.97
2022-08-26T06:13:53.372Z,99979.94
2022-08-26T06:16:21.591Z,99974.59
2022-08-26T06:18:48.929Z,99980.50
2022-08-26T06:21:26.218Z,99972.41
2022-08-26T06:24:12.395Z,99974.62
2022-08-26T06:26:39.399Z,99984.09
2022-08-26T06:29:09.408Z,99986.41
2022-08-26T06:31:36.443Z,99983.72
2022-08-26T06:34:07.369Z,99989.44
2022-08-26T06:36:37.092Z,99986.63
2022-08-26T06:39:09.437Z,99982.19
2022-08-26T06:41:40.162Z,99980.34
2022-08-26T06:44:09.702Z,99982.31
2022-08-26T06:46:36.607Z,99987.00
2022-08-26T06:49:03.213Z,99984.88
2022-08-26T06:51:32.164Z,99982.59
2022-08-26T06:54:02.465Z,99986.81
2022-08-26T06:56:35.816Z,99981.62
2022-08-26T06:59:02.792Z,99985.44
2022-08-26T07:01:34.356Z,99982.00
2022-08-26T07:04:03.893Z,99985.75
2022-08-26T07:06:39.029Z,99981.09
2022-08-26T07:09:06.545Z,99983.41
2022-08-26T07:11:37.257Z,99983.94
2022-08-26T07:14:04.470Z,99980.66
2022-08-26T07:16:31.008Z,99981.28
2022-08-26T07:18:57.578Z,99982.81
2022-08-26T07:21:24.668Z,99974.25
2022-08-26T07:23:52.454Z,99982.72
2022-08-26T07:26:20.714Z,99978.53
2022-08-26T07:28:48.658Z,99980.03
2022-08-26T07:31:16.156Z,99976.84
2022-08-26T07:33:42.734Z,99977.13
2022-08-26T07:36:10.839Z,99973.75
2022-08-26T07:38:38.765Z,99980.31
2022-08-26T07:41:05.413Z,99977.34
2022-08-26T07:43:32.550Z,99976.25
2022-08-26T07:45:59.006Z,99973.06
2022-08-26T07:48:25.570Z,99977.78
2022-08-26T07:50:53.784Z,99970.37
2022-08-26T07:53:21.455Z,99972.31
2022-08-26T07:55:51.150Z,99975.31
2022-08-26T07:58:19.111Z,99973.09
2022-08-26T08:00:45.886Z,99975.06
2022-08-26T08:03:13.078Z,99978.56
2022-08-26T08:05:41.263Z,99974.19
2022-08-26T08:08:26.255Z,99979.50
2022-08-26T08:10:55.509Z,99976.50
2022-08-26T08:13:23.517Z,99973.16
2022-08-26T08:15:50.331Z,99968.03
2022-08-26T08:18:16.950Z,99967.88
2022-08-26T08:20:47.659Z,99965.72
2022-08-26T08:23:26.011Z,99970.37
2022-08-26T08:26:01.366Z,99964.34
2022-08-26T08:28:28.037Z,99965.81
2022-08-26T08:30:54.663Z,99957.97
2022-08-26T08:33:21.131Z,99952.69
2022-08-26T08:35:48.442Z,99950.00
2022-08-26T08:38:15.725Z,99953.72
2022-08-26T08:40:43.973Z,99954.25
2022-08-26T08:43:13.574Z,99940.28
2022-08-26T08:45:42.541Z,99944.66
2022-08-26T08:48:18.043Z,99949.03
2022-08-26T08:50:46.218Z,99937.22
2022-08-26T08:53:32.908Z,99930.84
2022-08-26T08:56:05.235Z,99940.53
2022-08-26T08:58:40.339Z,99936.28
2022-08-26T09:01:12.183Z,99936.81
2022-08-26T09:03:51.387Z,99932.47
2022-08-26T09:06:18.837Z,99936.75
2022-08-26T09:08:46.658Z,99933.00
2022-08-26T09:11:17.565Z,99928.88
2022-08-26T09:13:52.029Z,99922.72
2022-08-26T09:16:37.301Z,99922.91
2022-08-26T09:19:33.509Z,99921.81
2022-08-26T09:22:00.526Z,99923.25
2022-08-26T09:24:29.482Z,99931.19
2022-08-26T09:26:58.250Z,99915.16
2022-08-26T09:29:26.756Z,99923.50
2022-08-26T09:32:12.915Z,99921.31
2022-08-26T09:34:52.071Z,99913.72
2022-08-26T09:37:32.369Z,99917.03
2022-08-26T09:40:26.901Z,99909.13
2022-08-26T09:43:22.456Z,99916.44
2022-08-26T09:45:58.420Z,99909.19
2022-08-26T09:48:26.158Z,99904.25
2022-08-26T09:50:55.031Z,99905.94
2022-08-26T09:53:28.495Z,99908.56
2022-08-26T09:56:14.875Z,99903.81
2022-08-26T09:58:43.504Z,99898.34
2022-08-26T10:01:15.886Z,99896.06
2022-08-26T10:03:43.425Z,99897.19
2022-08-26T10:06:12.804Z,99891.72
2022-08-26T10:08:42.091Z,99890.84
2022-08-26T10:11:16.996Z,99896.03
2022-08-26T10:13:46.158Z,99885.09
2022-08-26T10:16:33.333Z,99889.06
2022-08-26T10:19:13.257Z,99888.78
2022-08-26T10:21:53.083Z,99889.94
2022-08-26T10:24:23.723Z,99886.25
2022-08-26T10:26:58.795Z,99869.22
2022-08-26T10:29:29.707Z,99880.03
2022-08-26T10:32:03.647Z,99878.41
2022-08-26T10:34:32.037Z,99870.59
2022-08-26T10:37:14.991Z,99866.25
2022-08-26T10:39:51.947Z,99872.56
2022-08-26T10:42:35.241Z,99864.69
2022-08-26T10:45:05.594Z,99862.44
2022-08-26T10:47:44.873Z,99857.81
2022-08-26T10:50:11.451Z,99849.69
2022-08-26T10:53:08.753Z,99861.25
2022-08-26T10:55:53.133Z,99849.69
2022-08-26T10:58:26.300Z,99845.44
2022-08-26T11:01:17.015Z,99846.91
2022-08-26T11:04:08.705Z,99852.34
2022-08-26T11:06:37.113Z,99846.97
2022-08-26T11:09:08.685Z,99834.94
2022-08-26T11:11:41.351Z,99835.00
2022-08-26T11:14:09.195Z,99833.03
2022-08-26T11:16:49.714Z,99828.69
2022-08-26T11:19:50.544Z,99829.59
2022-08-26T11:22:25.705Z,99825.56
2022-08-26T11:24:54.962Z,99819.16
2022-08-26T11:27:24.907Z,99825.69
2022-08-26T11:30:10.768Z,99823.00
2022-08-26T11:32:39.258Z,99815.63
2022-08-26T11:35:07.093Z,99814.50
2022-08-26T11:37:40.612Z,99815.28
2022-08-26T11:40:08.275Z,99813.13
2022-08-26T11:42:51.885Z,99816.06
2022-08-26T11:45:27.567Z,99809.84
2022-08-26T11:47:54.873Z,99808.72
2022-08-26T11:50:26.390Z,99805.22
2022-08-26T11:52:55.648Z,99795.44
2022-08-26T11:55:23.296Z,99806.62
2022-08-26T11:57:53.224Z,99800.88
2022-08-26T12:00:24.310Z,99790.47
2022-08-26T12:02:52.396Z,99785.72
2022-08-26T12:05:24.440Z,99780.53
2022-08-26T12:07:54.399Z,99782.56
2022-08-26T12:10:30.027Z,99788.97
2022-08-26T12:12:58.684Z,99788.91
2022-08-26T12:15:26.412Z,99776.53
2022-08-26T12:17:56.148Z,99775.84
2022-08-26T12:20:45.791Z,99775.84
2022-08-26T12:23:26.999Z,99768.50
2022-08-26T12:26:02.280Z,99769.28
2022-08-26T12:28:30.094Z,99762.63
2022-08-26T12:31:00.937Z,99753.97
2022-08-26T12:33:27.986Z,99752.22
2022-08-26T12:35:56.709Z,99748.22
2022-08-26T12:38:24.951Z,99747.97
2022-08-26T12:40:51.835Z,99743.16
2022-08-26T12:43:41.635Z,99750.41
2022-08-26T12:46:10.320Z,99749.19
2022-08-26T12:48:38.845Z,99745.84
2022-08-26T12:51:15.393Z,99734.47
2022-08-26T12:53:43.510Z,99735.28
2022-08-26T12:56:30.153Z,99737.19
2022-08-26T12:59:20.868Z,99732.94
2022-08-26T13:01:48.497Z,99733.28
2022-08-26T13:04:49.000Z,99732.38
2022-08-26T13:07:20.916Z,99721.13
2022-08-26T13:09:47.747Z,99723.25
2022-08-26T13:12:23.270Z,99719.28
2022-08-26T13:14:50.890Z,99712.31
2022-08-26T13:17:17.357Z,99711.56
2022-08-26T13:19:43.871Z,99707.25
2022-08-26T13:22:11.914Z,99702.50
2022-08-26T13:24:40.520Z,99697.00
2022-08-26T13:27:08.009Z,99693.78
2022-08-26T13:29:34.882Z,99700.03
2022-08-26T13:32:01.649Z,99694.69
2022-08-26T13:34:28.594Z,99682.22
2022-08-26T13:36:56.348Z,99690.44
2022-08-26T13:39:23.675Z,99689.41
2022-08-26T13:41:50.569Z,99687.53
2022-08-26T13:44:17.448Z,99681.06
2022-08-26T13:49:12.114Z,99676.03
2022-08-26T13:51:38.959Z,99672.38
2022-08-26T13:54:06.028Z,99675.06
2022-08-26T13:56:32.846Z,99679.78
2022-08-26T13:59:00.098Z,99673.94
2022-08-26T14:01:28.708Z,99672.41
2022-08-26T14:03:55.334Z,99659.66
2022-08-26T14:06:21.918Z,99667.16
2022-08-26T14:08:48.634Z,99661.22
2022-08-26T14:11:15.222Z,99656.72
2022-08-26T14:13:41.762Z,99654.88
2022-08-26T14:16:10.644Z,99661.47
2022-08-26T14:18:42.581Z,99655.81
2022-08-26T14:21:12.638Z,99657.53
2022-08-26T14:23:39.140Z,99658.25
2022-08-26T14:26:08.448Z,99665.16
2022-08-26T14:28:35.388Z,99664.50
2022-08-26T14:31:02.515Z,99668.81
2022-08-26T14:33:32.328Z,99674.59
2022-08-26T14:36:19.586Z,99673.63
2022-08-26T14:38:46.351Z,99672.28
2022-08-26T14:41:14.001Z,99667.28
2022-08-26T14:43:42.878Z,99653.75
2022-08-26T14:46:09.424Z,99662.59
2022-08-26T14:48:35.970Z,99658.37
2022-08-26T14:51:02.465Z,99664.19
2022-08-26T14:53:47.678Z,99664.91
2022-08-26T14:56:16.717Z,99661.03
2022-08-26T14:58:44.108Z,99658.72
2022-08-26T15:01:12.919Z,99654.47
2022-08-26T15:03:39.581Z,99654.09
2022-08-26T15:06:06.419Z,99655.22
2022-08-26T15:08:36.558Z,99651.44
2022-08-26T15:11:03.918Z,99651.81
2022-08-26T15:13:30.531Z,99651.44
2022-08-26T15:15:57.024Z,99644.78
2022-08-26T15:18:23.560Z,99645.53
2022-08-26T15:20:50.442Z,99645.59
2022-08-26T15:23:16.926Z,99639.81
2022-08-26T15:25:44.648Z,99642.00
2022-08-26T15:28:11.218Z,99641.44
2022-08-26T15:30:38.276Z,99634.84
2022-08-26T15:33:04.773Z,99635.56
2022-08-26T15:35:32.977Z,99634.34
2022-08-26T15:38:02.605Z,99637.63
2022-08-26T15:40:29.171Z,99636.44
2022-08-26T15:43:11.364Z,99633.41
2022-08-26T15:45:42.240Z,99624.28
2022-08-26T15:48:08.731Z,99627.72
2022-08-26T15:50:35.289Z,99632.16
2022-08-26T15:53:01.960Z,99627.75
2022-08-26T15:55:28.609Z,99627.34
2022-08-26T15:57:55.684Z,99628.00
2022-08-26T16:00:23.354Z,99617.19
2022-08-26T16:02:50.439Z,99618.75
2022-08-26T16:05:17.356Z,99626.19
2022-08-26T16:07:43.858Z,99628.88
2022-08-26T16:10:10.474Z,99619.84
2022-08-26T16:12:37.012Z,99626.03
2022-08-26T16:15:03.706Z,99624.47
2022-08-26T16:17:30.186Z,99616.03
2022-08-26T16:19:56.676Z,99613.81
2022-08-26T16:22:23.241Z,99611.53
2022-08-26T16:24:50.288Z,99616.19
2022-08-26T16:27:16.863Z,99609.66
2022-08-26T16:29:43.383Z,99609.22
2022-08-26T16:32:09.936Z,99612.69
2022-08-26T16:34:36.530Z,99609.16
2022-08-26T16:37:03.208Z,99613.63
2022-08-26T16:39:29.834Z,99615.53
2022-08-26T16:41:56.376Z,99608.38
2022-08-26T16:44:22.933Z,99620.63
2022-08-26T16:46:50.017Z,99609.38
2022-08-26T16:49:22.552Z,99614.13
2022-08-26T16:51:49.540Z,99619.47
2022-08-26T16:54:16.071Z,99623.09
2022-08-26T16:56:42.542Z,99620.19
2022-08-26T16:59:11.477Z,99619.03
2022-08-26T17:01:38.081Z,99627.37
2022-08-26T17:04:04.884Z,99615.47
2022-08-26T17:06:31.430Z,99615.03
2022-08-26T17:08:58.043Z,99618.06
2022-08-26T17:11:24.588Z,99619.78
2022-08-26T17:13:51.116Z,99616.69
2022-08-26T17:16:17.646Z,99612.41
2022-08-26T17:18:44.371Z,99618.91
2022-08-26T17:21:11.838Z,99615.50
2022-08-26T17:23:38.872Z,99612.31
2022-08-26T17:26:05.535Z,99612.53
2022-08-26T17:28:32.385Z,99613.06
2022-08-26T17:30:59.139Z,99620.34
2022-08-26T17:33:26.247Z,99617.50
2022-08-26T17:35:53.200Z,99622.78
2022-08-26T17:38:21.172Z,99628.78
2022-08-26T17:40:47.881Z,99624.81
2022-08-26T17:43:14.524Z,99628.00
2022-08-26T17:45:41.431Z,99622.31
2022-08-26T17:48:09.055Z,99630.13
2022-08-26T17:50:35.753Z,99624.09
2022-08-26T17:53:02.319Z,99617.03
2022-08-26T17:55:29.284Z,99623.53
2022-08-26T17:57:55.885Z,99625.69
2022-08-26T18:00:26.482Z,99624.38
2022-08-26T18:02:58.561Z,99626.59
2022-08-26T18:05:25.192Z,99626.72
2022-08-26T18:07:51.808Z,99628.41
2022-08-26T18:10:19.447Z,99630.16
2022-08-26T18:12:45.999Z,99631.84
2022-08-26T18:15:14.135Z,99626.00
2022-08-26T18:17:56.297Z,99633.22
2022-08-26T18:20:43.583Z,99629.44
2022-08-26T18:23:10.866Z,99628.50
2022-08-26T18:25:40.737Z,99630.22
2022-08-26T18:28:27.874Z,99627.19
2022-08-26T18:30:57.495Z,99628.22
2022-08-26T18:33:24.416Z,99621.06
2022-08-26T18:35:50.887Z,99630.13
2022-08-26T18:38:17.755Z,99622.91
2022-08-26T18:40:45.933Z,99626.13
2022-08-26T18:43:12.571Z,99626.47
2022-08-26T18:45:39.189Z,99634.44
2022-08-26T18:48:05.769Z,99628.78
2022-08-26T18:50:32.313Z,99633.28
2022-08-26T18:52:58.815Z,99630.34
2022-08-26T18:55:45.335Z,99625.75
2022-08-26T18:58:31.875Z,99626.34
2022-08-26T19:01:03.012Z,99629.81
2022-08-26T19:03:49.395Z,99625.63
2022-08-26T19:06:36.347Z,99633.22
2022-08-26T19:09:23.093Z,99628.25
2022-08-26T19:11:50.194Z,99635.31
2022-08-26T19:14:25.566Z,99636.25
2022-08-26T19:17:12.289Z,99633.19
2022-08-26T19:19:38.992Z,99639.31
2022-08-26T19:22:25.528Z,99643.19
2022-08-26T19:25:12.183Z,99640.72
2022-08-26T19:27:58.724Z,99640.91
2022-08-26T19:30:29.830Z,99649.69
2022-08-26T19:33:17.030Z,99645.53
2022-08-26T19:36:06.490Z,99649.47
2022-08-26T19:38:50.863Z,99647.12
2022-08-26T19:41:38.904Z,99651.53
2022-08-26T19:44:44.117Z,99654.53
2022-08-26T19:47:31.439Z,99660.97
2022-08-26T19:50:18.039Z,99651.41
2022-08-26T19:53:04.732Z,99658.06
2022-08-26T19:55:51.886Z,99665.56
2022-08-26T19:58:38.512Z,99669.78
2022-08-26T20:01:25.745Z,99675.47
2022-08-26T20:04:12.727Z,99671.06
2022-08-26T20:07:00.902Z,99674.91
2022-08-26T20:09:48.160Z,99674.56
2022-08-26T20:12:15.545Z,99680.31
2022-08-26T20:14:46.269Z,99684.47
2022-08-26T20:17:32.952Z,99683.34
2022-08-26T20:20:32.736Z,99679.03
2022-08-26T20:23:01.755Z,99681.63
2022-08-26T20:25:30.256Z,99685.28
2022-08-26T20:28:06.473Z,99685.50
2022-08-26T20:30:33.388Z,99686.69
2022-08-26T20:33:20.576Z,99686.72
2022-08-26T20:36:10.166Z,99690.56
2022-08-26T20:38:57.166Z,99693.75
2022-08-26T20:41:32.980Z,99694.16
2022-08-26T20:44:09.434Z,99694.25
2022-08-26T20:46:36.220Z,99689.34
2022-08-26T20:49:04.501Z,99687.31
2022-08-26T20:51:37.478Z,99698.03
2022-08-26T20:54:05.279Z,99699.88
2022-08-26T20:56:31.834Z,99698.78
2022-08-26T20:59:00.003Z,99694.78
2022-08-26T21:01:28.391Z,99700.84
2022-08-26T21:03:55.802Z,99703.50
2022-08-26T21:06:23.252Z,99707.22
2022-08-26T21:08:50.642Z,99709.09
2022-08-26T21:11:18.413Z,99706.63
2022-08-26T21:14:06.793Z,99712.72
2022-08-26T21:16:46.210Z,99713.19
2022-08-26T21:19:31.941Z,99716.72
2022-08-26T21:22:18.475Z,99706.59
2022-08-26T21:24:46.158Z,99715.50
2022-08-26T21:27:34.250Z,99715.09
2022-08-26T21:30:20.752Z,99720.88
2022-08-26T21:33:04.335Z,99716.09
2022-08-26T21:35:51.959Z,99727.88
2022-08-26T21:38:20.420Z,99718.87
2022-08-26T21:41:07.346Z,99724.16
2022-08-26T21:43:35.641Z,99722.16
2022-08-26T21:46:17.090Z,99725.22
2022-08-26T21:48:49.938Z,99725.81
2022-08-26T21:51:33.776Z,99724.53
2022-08-26T21:54:01.633Z,99726.81
2022-08-26T21:56:46.726Z,99726.47
2022-08-26T21:59:14.747Z,99725.50
2022-08-26T22:01:41.667Z,99726.84
2022-08-26T22:04:09.262Z,99724.25
2022-08-26T22:06:39.513Z,99720.09
2022-08-26T22:09:06.025Z,99722.19
2022-08-26T22:11:32.520Z,99717.63
2022-08-26T22:13:59.413Z,99717.81
2022-08-26T22:16:28.827Z,99714.59
2022-08-26T22:19:17.335Z,99719.50
2022-08-26T22:21:45.312Z,99717.13
2022-08-26T22:24:12.483Z,99708.28
2022-08-26T22:26:43.235Z,99717.28
2022-08-26T22:29:09.893Z,99711.50
2022-08-26T22:31:38.082Z,99712.81
2022-08-26T22:34:09.588Z,99718.78
2022-08-26T22:36:42.684Z,99712.59
2022-08-26T22:39:11.143Z,99714.00
2022-08-26T22:41:37.831Z,99707.09
2022-08-26T22:44:04.958Z,99714.50
2022-08-26T22:46:40.857Z,99707.88
2022-08-26T22:49:27.367Z,99704.16
2022-08-26T22:52:13.823Z,99706.31
2022-08-26T22:54:42.236Z,99712.19
2022-08-26T22:57:28.772Z,99709.97
2022-08-26T23:00:15.399Z,99709.25
2022-08-26T23:03:02.925Z,99706.25
2022-08-26T23:05:49.490Z,99695.59
2022-08-26T23:08:36.536Z,99699.75
2022-08-26T23:11:23.162Z,99696.16
2022-08-26T23:14:09.971Z,99696.81
2022-08-26T23:16:39.588Z,99692.94
2022-08-26T23:19:09.494Z,99691.97
2022-08-26T23:21:36.088Z,99700.62
2022-08-26T23:24:02.836Z,99696.44
2022-08-26T23:26:29.458Z,99693.44
2022-08-26T23:28:55.980Z,99694.66
2022-08-26T23:31:22.479Z,99690.19
2022-08-26T23:34:07.740Z,99692.75
2022-08-26T23:36:35.094Z,99689.97
2022-08-26T23:39:03.211Z,99685.19
2022-08-26T23:41:29.732Z,99681.87
2022-08-26T23:43:59.562Z,99683.19
2022-08-26T23:46:43.286Z,99686.25
2022-08-26T23:49:29.977Z,99683.06
2022-08-26T23:52:35.167Z,99687.91
2022-08-26T23:55:23.249Z,99684.84
2022-08-26T23:57:50.105Z,99672.56
